Time;durP1;ratioP1;P1;durP2;ratioP2;P2;SDS_P1;SDS_P2;PMS_P1;PMS_P2;Temp;Humidity;BMP_temperature;BMP_pressure;BME280_temperature;BME280_humidity;BME280_pressure;Samples;Min_cycle;Max_cycle;Signal;HPM_P1;HPM_P2
2021/08/12 00:01:16;;;;;;;4.62;3.70;;;16.90;99.90;;;;;;1997444;72;21037;-76
2021/08/12 00:03:42;;;;;;;5.22;3.15;;;16.90;99.90;;;;;;1997411;72;21037;-76
2021/08/12 00:06:08;;;;;;;13.20;4.37;;;16.90;99.90;;;;;;1997399;72;21038;-77
2021/08/12 00:08:34;;;;;;;5.70;3.70;;;16.90;99.90;;;;;;1996267;72;21374;-75
2021/08/12 00:11:00;;;;;;;4.97;3.70;;;16.90;99.90;;;;;;1993700;72;21041;-75
2021/08/12 00:13:26;;;;;;;23.07;3.95;;;16.80;99.90;;;;;;1997451;72;21110;-75
2021/08/12 00:15:53;;;;;;;5.17;4.10;;;16.80;99.90;;;;;;1997381;72;21096;-76
2021/08/12 00:18:19;;;;;;;6.78;4.35;;;16.80;99.90;;;;;;1997380;72;21037;-75
2021/08/12 00:20:45;;;;;;;6.40;3.98;;;16.80;99.90;;;;;;1997409;72;21084;-75
2021/08/12 00:23:11;;;;;;;4.83;4.15;;;16.80;99.90;;;;;;1996177;72;21046;-75
2021/08/12 00:25:37;;;;;;;5.65;4.05;;;16.70;99.90;;;;;;1996659;72;21048;-75
2021/08/12 00:28:03;;;;;;;7.60;4.00;;;16.70;99.90;;;;;;1995433;72;21115;-75
2021/08/12 00:30:29;;;;;;;6.75;4.00;;;16.60;99.90;;;;;;1996319;72;21041;-75
2021/08/12 00:32:55;;;;;;;6.45;4.70;;;16.60;99.90;;;;;;1997534;72;21089;-75
2021/08/12 00:35:22;;;;;;;4.33;3.60;;;16.60;99.90;;;;;;1997397;72;21035;-75
2021/08/12 00:37:48;;;;;;;4.03;3.62;;;16.60;99.90;;;;;;1995804;72;21474;-75
2021/08/12 00:40:14;;;;;;;5.30;4.10;;;16.60;99.90;;;;;;1997179;72;21466;-75
2021/08/12 00:42:40;;;;;;;5.17;4.00;;;16.50;99.90;;;;;;1997305;72;21432;-75
2021/08/12 00:45:06;;;;;;;5.95;4.22;;;16.50;99.90;;;;;;1997439;72;21539;-75
2021/08/12 00:47:32;;;;;;;9.15;4.12;;;16.50;99.90;;;;;;1997306;72;21438;-76
2021/08/12 00:49:59;;;;;;;4.05;3.70;;;16.50;99.90;;;;;;1997488;72;21442;-76
2021/08/12 00:52:25;;;;;;;4.70;4.15;;;16.50;99.90;;;;;;1997284;72;21134;-76
2021/08/12 00:54:51;;;;;;;5.28;4.22;;;16.40;99.90;;;;;;1997312;72;21075;-75
2021/08/12 00:57:18;;;;;;;5.78;4.37;;;16.40;99.90;;;;;;1997507;72;21053;-75
2021/08/12 00:59:44;;;;;;;9.33;4.65;;;16.40;99.90;;;;;;1997317;72;21038;-75
2021/08/12 01:02:10;;;;;;;4.95;4.40;;;16.40;99.90;;;;;;1997513;72;21034;-76
2021/08/12 01:04:36;;;;;;;5.83;4.17;;;16.40;99.90;;;;;;1997273;72;21041;-75
2021/08/12 01:07:02;;;;;;;5.00;4.00;;;16.30;99.90;;;;;;1997391;72;21037;-75
2021/08/12 01:09:28;;;;;;;4.50;4.10;;;16.30;99.90;;;;;;1997411;72;21030;-75
2021/08/12 01:11:56;;;;;;;4.92;3.87;;;16.30;99.90;;;;;;1997361;72;21038;-75
2021/08/12 01:14:26;;;;;;;6.83;4.35;;;16.30;99.90;;;;;;1997292;72;21025;-76
2021/08/12 01:16:50;;;;;;;4.97;4.20;;;16.20;99.90;;;;;;1995664;72;21050;-76
2021/08/12 01:19:16;;;;;;;6.97;4.85;;;16.20;99.90;;;;;;1997281;72;21053;-76
2021/08/12 01:21:42;;;;;;;4.47;4.05;;;16.20;99.90;;;;;;1997385;72;21075;-75
2021/08/12 01:24:08;;;;;;;6.92;4.60;;;16.10;99.90;;;;;;1997384;72;21038;-76
2021/08/12 01:26:34;;;;;;;8.23;4.03;;;16.20;99.90;;;;;;1997353;72;21019;-76
2021/08/12 01:29:00;;;;;;;5.95;4.10;;;16.10;99.90;;;;;;1997373;72;21185;-76
2021/08/12 01:31:26;;;;;;;7.03;4.20;;;16.10;99.90;;;;;;1997352;72;21108;-76
2021/08/12 01:33:53;;;;;;;4.80;4.00;;;16.10;99.90;;;;;;1997400;72;21037;-75
2021/08/12 01:36:19;;;;;;;5.50;4.15;;;16.10;99.90;;;;;;1997385;72;21111;-76
2021/08/12 01:38:45;;;;;;;5.90;4.47;;;16.10;99.90;;;;;;1997354;72;21517;-76
2021/08/12 01:41:11;;;;;;;5.12;4.08;;;16.00;99.90;;;;;;1997375;72;21438;-76
2021/08/12 01:43:37;;;;;;;7.10;4.12;;;16.00;99.90;;;;;;1997403;72;21037;-75
2021/08/12 01:46:03;;;;;;;5.97;4.33;;;16.00;99.90;;;;;;1997347;72;21037;-75
2021/08/12 01:48:29;;;;;;;7.08;4.53;;;16.00;99.90;;;;;;1997389;72;21038;-76
2021/08/12 01:50:56;;;;;;;7.17;4.17;;;16.00;99.90;;;;;;1997333;72;21086;-75
2021/08/12 01:53:22;;;;;;;6.47;4.12;;;16.00;99.90;;;;;;1997369;72;21033;-75
2021/08/12 01:55:48;;;;;;;5.40;4.17;;;16.00;99.90;;;;;;1997572;72;21042;-75
2021/08/12 01:58:14;;;;;;;5.12;4.35;;;15.90;99.90;;;;;;1997231;72;21037;-75
2021/08/12 02:00:40;;;;;;;6.03;4.47;;;15.90;99.90;;;;;;1997430;72;21010;-76
2021/08/12 02:03:07;;;;;;;8.58;4.72;;;15.90;99.90;;;;;;1997242;72;21115;-76
2021/08/12 02:05:33;;;;;;;8.30;4.60;;;15.90;99.90;;;;;;1997437;72;21115;-75
2021/08/12 02:07:59;;;;;;;9.68;4.80;;;15.80;99.90;;;;;;1997225;72;21037;-75
2021/08/12 02:10:26;;;;;;;5.50;4.67;;;15.80;99.90;;;;;;1997428;72;21131;-75
2021/08/12 02:12:52;;;;;;;6.37;4.58;;;15.80;99.90;;;;;;1997351;72;21099;-75
2021/08/12 02:15:18;;;;;;;5.00;4.60;;;15.80;99.90;;;;;;1997470;72;21083;-75
2021/08/12 02:17:44;;;;;;;5.08;4.60;;;15.80;99.90;;;;;;1997323;72;21033;-75
2021/08/12 02:20:10;;;;;;;4.92;4.42;;;15.80;99.90;;;;;;1997436;72;21114;-75
2021/08/12 02:22:36;;;;;;;7.17;5.10;;;15.80;99.90;;;;;;1997390;72;21108;-75
2021/08/12 02:25:04;;;;;;;7.00;4.55;;;15.80;99.90;;;;;;1997441;72;21099;-76
2021/08/12 02:27:30;;;;;;;6.90;4.72;;;15.80;99.90;;;;;;1997420;72;21038;-75
2021/08/12 02:29:56;;;;;;;6.72;4.92;;;15.80;99.90;;;;;;1997493;72;21009;-75
2021/08/12 02:32:22;;;;;;;6.90;4.62;;;15.80;99.90;;;;;;1997580;72;21037;-75
2021/08/12 02:34:49;;;;;;;4.62;4.22;;;15.70;99.90;;;;;;1997665;72;21035;-75
2021/08/12 02:37:15;;;;;;;7.55;4.95;;;15.70;99.90;;;;;;1997553;72;21127;-75
2021/08/12 02:39:41;;;;;;;9.13;5.70;;;15.70;99.90;;;;;;1997463;72;21119;-75
2021/08/12 02:42:07;;;;;;;7.28;4.60;;;15.70;99.90;;;;;;1997476;72;21014;-75
2021/08/12 02:44:33;;;;;;;5.42;4.37;;;15.70;99.90;;;;;;1996540;72;21107;-75
2021/08/12 02:46:59;;;;;;;6.65;5.17;;;15.70;99.90;;;;;;1993616;72;21107;-75
2021/08/12 02:49:25;;;;;;;7.78;4.90;;;15.70;99.90;;;;;;1992962;72;21053;-75
2021/08/12 02:51:51;;;;;;;9.30;5.12;;;15.70;99.90;;;;;;1993862;72;20990;-75
2021/08/12 02:54:17;;;;;;;7.10;5.78;;;15.70;99.90;;;;;;1994923;72;21053;-75
2021/08/12 02:56:44;;;;;;;6.47;5.08;;;15.70;99.90;;;;;;1996519;72;21126;-76
2021/08/12 02:59:11;;;;;;;9.08;5.28;;;15.60;99.90;;;;;;1994797;72;21458;-75
2021/08/12 03:01:37;;;;;;;6.10;5.12;;;15.60;99.90;;;;;;1995942;72;21062;-75
2021/08/12 03:04:04;;;;;;;6.12;4.53;;;15.60;99.90;;;;;;1997576;72;21038;-76
2021/08/12 03:06:30;;;;;;;7.17;5.28;;;15.60;99.90;;;;;;1996068;72;21049;-75
2021/08/12 03:08:56;;;;;;;6.70;5.15;;;15.50;99.90;;;;;;1996304;72;21100;-75
2021/08/12 03:11:22;;;;;;;5.97;5.10;;;15.50;99.90;;;;;;1997448;72;21010;-75
2021/08/12 03:13:48;;;;;;;6.45;5.20;;;15.40;99.90;;;;;;1997484;72;21037;-76
2021/08/12 03:16:14;;;;;;;6.40;5.03;;;15.40;99.90;;;;;;1998203;71;21010;-75
2021/08/12 03:18:42;;;;;;;7.30;5.30;;;15.40;99.90;;;;;;2000944;71;21045;-76
2021/08/12 03:21:08;;;;;;;8.93;5.78;;;15.40;99.90;;;;;;2000704;71;21246;-76
2021/08/12 03:23:34;;;;;;;12.00;5.97;;;15.40;99.90;;;;;;1997437;72;21522;-76
2021/08/12 03:26:00;;;;;;;9.18;5.15;;;15.40;99.90;;;;;;1997423;72;21433;-76
2021/08/12 03:28:26;;;;;;;6.15;5.33;;;15.40;99.90;;;;;;1997554;72;21509;-76
2021/08/12 03:30:52;;;;;;;6.55;4.97;;;15.40;99.90;;;;;;1997460;72;21449;-75
2021/08/12 03:33:18;;;;;;;5.62;4.72;;;15.30;99.90;;;;;;1997413;72;21462;-75
2021/08/12 03:35:45;;;;;;;7.45;4.90;;;15.30;99.90;;;;;;1997627;72;21470;-75
2021/08/12 03:38:11;;;;;;;6.62;5.35;;;15.30;99.90;;;;;;1997413;72;21527;-76
2021/08/12 03:40:37;;;;;;;6.08;5.47;;;15.30;99.90;;;;;;1997416;72;21049;-75
2021/08/12 03:43:03;;;;;;;7.72;5.72;;;15.30;99.90;;;;;;1997441;72;21119;-75
2021/08/12 03:45:29;;;;;;;7.37;5.05;;;15.30;99.90;;;;;;1997427;72;21042;-75
2021/08/12 03:47:55;;;;;;;6.30;5.33;;;15.20;99.90;;;;;;1997474;72;21035;-75
2021/08/12 03:50:21;;;;;;;5.62;5.12;;;15.20;99.90;;;;;;1997361;72;21013;-75
2021/08/12 03:52:47;;;;;;;6.35;4.67;;;15.20;99.90;;;;;;1997538;72;21041;-75
2021/08/12 03:55:14;;;;;;;8.20;5.78;;;15.20;99.90;;;;;;1997444;72;21037;-75
2021/08/12 03:57:40;;;;;;;8.48;5.50;;;15.20;99.90;;;;;;1997457;72;21103;-76
2021/08/12 04:00:06;;;;;;;5.92;5.05;;;15.20;99.90;;;;;;1997436;72;21084;-75
2021/08/12 04:02:32;;;;;;;6.28;5.50;;;15.20;99.90;;;;;;1997419;72;21103;-75
2021/08/12 04:04:58;;;;;;;6.83;5.10;;;15.10;99.90;;;;;;1997523;72;21042;-75
2021/08/12 04:07:24;;;;;;;5.92;5.28;;;15.20;99.90;;;;;;1997542;72;21042;-75
2021/08/12 04:09:50;;;;;;;7.03;5.42;;;15.20;99.90;;;;;;1997569;72;21038;-75
2021/08/12 04:12:16;;;;;;;9.18;5.05;;;15.20;99.90;;;;;;1997546;72;21073;-74
2021/08/12 04:14:43;;;;;;;6.92;5.17;;;15.20;99.90;;;;;;1997561;72;21032;-75
2021/08/12 04:17:09;;;;;;;8.05;5.58;;;15.20;99.90;;;;;;1997581;72;21099;-75
2021/08/12 04:19:35;;;;;;;8.38;4.90;;;15.20;99.90;;;;;;1997554;72;21033;-75
2021/08/12 04:22:01;;;;;;;7.58;5.62;;;15.20;99.90;;;;;;1997539;72;21022;-75
2021/08/12 04:24:27;;;;;;;7.90;5.03;;;15.20;99.90;;;;;;1997431;72;21099;-75
2021/08/12 04:26:53;;;;;;;6.55;4.67;;;15.10;99.90;;;;;;1997503;72;21011;-76
2021/08/12 04:29:19;;;;;;;5.37;4.80;;;15.20;99.90;;;;;;1997424;72;21095;-76
2021/08/12 04:31:45;;;;;;;5.83;5.00;;;15.20;99.90;;;;;;1997415;72;21041;-75
2021/08/12 04:34:14;;;;;;;8.98;5.12;;;15.20;99.90;;;;;;1997433;72;21013;-75
2021/08/12 04:36:40;;;;;;;5.53;4.85;;;15.20;99.90;;;;;;1997439;72;21106;-76
2021/08/12 04:39:06;;;;;;;5.30;4.80;;;15.30;99.90;;;;;;1997448;72;21076;-75
2021/08/12 04:41:33;;;;;;;12.30;5.95;;;15.20;99.90;;;;;;1997524;72;21030;-75
2021/08/12 04:43:59;;;;;;;5.40;4.83;;;15.30;99.90;;;;;;1997406;72;21038;-75
2021/08/12 04:46:26;;;;;;;5.40;4.90;;;15.40;99.90;;;;;;1997541;72;21143;-75
2021/08/12 04:48:52;;;;;;;6.97;5.53;;;15.40;99.90;;;;;;1998055;72;21003;-77
2021/08/12 04:51:19;;;;;;;7.03;5.03;;;15.40;99.90;;;;;;1997413;72;21043;-77
2021/08/12 04:53:45;;;;;;;9.45;5.62;;;15.50;99.90;;;;;;1997514;72;21033;-77
2021/08/12 04:56:11;;;;;;;6.80;4.87;;;15.50;99.90;;;;;;1997258;72;21029;-76
2021/08/12 04:58:37;;;;;;;7.28;5.90;;;15.50;99.90;;;;;;1997447;72;21010;-77
2021/08/12 05:01:03;;;;;;;8.45;5.50;;;15.50;99.90;;;;;;1997494;72;21115;-76
2021/08/12 05:03:29;;;;;;;11.20;5.37;;;15.60;99.90;;;;;;1997584;72;21029;-77
2021/08/12 05:05:55;;;;;;;5.95;5.33;;;15.60;99.90;;;;;;1997599;72;21030;-77
2021/08/12 05:08:24;;;;;;;5.50;5.00;;;15.70;99.90;;;;;;1997578;72;21032;-77
2021/08/12 05:10:49;;;;;;;6.40;5.15;;;15.80;99.90;;;;;;1997179;72;21095;-78
2021/08/12 05:13:15;;;;;;;14.07;5.42;;;15.90;99.90;;;;;;1997367;72;21030;-77
2021/08/12 05:15:41;;;;;;;8.85;5.70;;;16.00;99.90;;;;;;1996214;72;21027;-77
2021/08/12 05:18:08;;;;;;;6.72;4.65;;;16.20;99.90;;;;;;1994969;72;21041;-77
2021/08/12 05:20:34;;;;;;;15.90;5.90;;;16.30;99.90;;;;;;1996684;72;21095;-77
2021/08/12 05:23:00;;;;;;;9.60;5.50;;;16.30;99.90;;;;;;1997341;72;21053;-77
2021/08/12 05:25:26;;;;;;;7.33;5.20;;;16.40;99.90;;;;;;1997315;72;21018;-77
2021/08/12 05:27:52;;;;;;;7.12;5.25;;;16.40;99.90;;;;;;1995787;72;21045;-77
2021/08/12 05:30:18;;;;;;;8.80;5.33;;;16.50;99.90;;;;;;1996359;72;21127;-77
2021/08/12 05:32:44;;;;;;;8.65;4.80;;;16.60;99.90;;;;;;1997413;72;21042;-78
2021/08/12 05:35:10;;;;;;;8.08;5.12;;;16.70;99.90;;;;;;1997454;72;21018;-77
2021/08/12 05:37:37;;;;;;;7.65;5.22;;;16.70;99.90;;;;;;1997452;72;21082;-78
2021/08/12 05:40:03;;;;;;;10.75;5.10;;;16.70;99.90;;;;;;1997411;72;21037;-77
2021/08/12 05:42:29;;;;;;;8.38;5.28;;;16.70;99.90;;;;;;1997433;72;21188;-76
2021/08/12 05:44:55;;;;;;;6.95;5.55;;;16.70;99.90;;;;;;1997323;72;21547;-77
2021/08/12 05:47:21;;;;;;;9.43;5.90;;;16.80;99.90;;;;;;1997205;72;21456;-79
2021/08/12 05:49:47;;;;;;;6.95;5.90;;;16.80;99.90;;;;;;1997635;72;21489;-77
2021/08/12 05:52:13;;;;;;;7.60;5.92;;;16.80;99.90;;;;;;1997235;72;21535;-77
2021/08/12 05:54:39;;;;;;;8.90;5.75;;;16.90;99.90;;;;;;1997417;72;21478;-79
2021/08/12 05:57:06;;;;;;;8.30;5.95;;;17.00;99.90;;;;;;1997289;72;21047;-79
2021/08/12 05:59:32;;;;;;;11.22;5.87;;;17.00;99.90;;;;;;1997539;72;21099;-80
2021/08/12 06:01:58;;;;;;;9.10;5.65;;;17.00;99.90;;;;;;1997332;72;21043;-79
2021/08/12 06:04:24;;;;;;;16.05;5.70;;;17.20;99.90;;;;;;1997323;72;21042;-77
2021/08/12 06:06:50;;;;;;;8.93;5.65;;;17.30;99.90;;;;;;1997335;72;21022;-76
2021/08/12 06:09:16;;;;;;;7.78;5.42;;;17.40;99.90;;;;;;1997374;72;21134;-76
2021/08/12 06:11:42;;;;;;;14.10;5.20;;;17.50;99.90;;;;;;1997395;72;21107;-77
2021/08/12 06:14:08;;;;;;;7.08;5.17;;;17.60;99.90;;;;;;1997427;72;21046;-77
2021/08/12 06:16:35;;;;;;;8.13;5.25;;;17.50;99.90;;;;;;1997390;72;21032;-75
2021/08/12 06:19:01;;;;;;;6.25;5.22;;;17.70;99.90;;;;;;1997446;72;21038;-76
2021/08/12 06:21:27;;;;;;;6.60;4.87;;;17.80;99.90;;;;;;1997292;72;21154;-76
2021/08/12 06:23:53;;;;;;;7.80;5.20;;;17.70;99.90;;;;;;1997494;72;21049;-76
2021/08/12 06:26:19;;;;;;;7.37;5.60;;;17.90;99.90;;;;;;1997222;72;21042;-76
2021/08/12 06:28:46;;;;;;;8.43;4.50;;;18.00;99.90;;;;;;1997463;72;21115;-76
2021/08/12 06:31:12;;;;;;;9.68;5.30;;;18.00;99.90;;;;;;1997261;72;21041;-75
2021/08/12 06:33:38;;;;;;;10.38;5.25;;;18.10;99.90;;;;;;1997453;72;21110;-75
2021/08/12 06:36:04;;;;;;;9.55;5.50;;;18.10;99.90;;;;;;1997411;72;21018;-74
2021/08/12 06:38:30;;;;;;;7.05;5.15;;;18.10;99.90;;;;;;1997449;72;21045;-75
2021/08/12 06:40:56;;;;;;;7.03;5.58;;;18.00;99.90;;;;;;1997271;72;21158;-75
2021/08/12 06:43:23;;;;;;;6.22;4.83;;;18.10;99.90;;;;;;1997400;72;21033;-75
2021/08/12 06:45:49;;;;;;;8.88;5.65;;;18.30;99.90;;;;;;1997473;72;21018;-75
2021/08/12 06:48:15;;;;;;;9.30;5.35;;;18.30;99.90;;;;;;1997585;72;21116;-74
2021/08/12 06:50:41;;;;;;;12.37;5.47;;;18.30;99.90;;;;;;1997527;72;21103;-75
2021/08/12 06:53:07;;;;;;;21.65;6.70;;;18.50;99.90;;;;;;1997594;72;21084;-74
2021/08/12 06:55:34;;;;;;;9.40;5.45;;;18.60;99.90;;;;;;1997574;72;21107;-74
2021/08/12 06:58:01;;;;;;;8.33;5.15;;;18.70;99.90;;;;;;1997451;72;21045;-74
2021/08/12 07:00:27;;;;;;;6.55;5.33;;;18.80;99.90;;;;;;1997548;72;21154;-74
2021/08/12 07:02:54;;;;;;;13.38;5.08;;;18.80;99.90;;;;;;1997342;72;21127;-74
2021/08/12 07:05:20;;;;;;;8.73;5.28;;;19.00;99.90;;;;;;1997474;72;21146;-75
2021/08/12 07:07:46;;;;;;;10.20;5.67;;;19.20;99.90;;;;;;1997285;72;21142;-75
2021/08/12 07:10:13;;;;;;;11.25;4.95;;;19.40;99.90;;;;;;1997395;72;21037;-74
2021/08/12 07:12:39;;;;;;;7.25;5.30;;;19.60;99.90;;;;;;1997343;72;21041;-75
2021/08/12 07:15:05;;;;;;;19.17;5.33;;;19.60;99.90;;;;;;1997351;72;21014;-75
2021/08/12 07:17:41;;;;;;;6.78;5.17;;;19.70;99.90;;;;;;1995171;72;21120;-75
2021/08/12 07:19:59;;;;;;;7.80;5.37;;;20.00;99.90;;;;;;1991425;72;21115;-75
2021/08/12 07:22:25;;;;;;;8.83;4.97;;;20.00;99.90;;;;;;1997433;72;21037;-74
2021/08/12 07:24:52;;;;;;;7.62;4.72;;;20.20;99.90;;;;;;1997531;72;21107;-74
2021/08/12 07:27:18;;;;;;;5.53;4.12;;;20.30;99.90;;;;;;1997484;72;21046;-75
2021/08/12 07:29:44;;;;;;;7.95;4.85;;;20.60;99.90;;;;;;1996721;71;21127;-75
2021/08/12 07:32:10;;;;;;;16.37;5.92;;;20.80;99.90;;;;;;1994687;72;21066;-74
2021/08/12 07:34:37;;;;;;;7.28;5.15;;;20.70;99.90;;;;;;1994856;72;21010;-76
2021/08/12 07:37:03;;;;;;;9.33;4.45;;;20.80;99.90;;;;;;1994343;72;21489;-75
2021/08/12 07:39:29;;;;;;;7.62;4.85;;;20.90;99.90;;;;;;1997430;72;21457;-76
2021/08/12 07:41:55;;;;;;;9.53;4.60;;;20.90;99.90;;;;;;1997405;72;21477;-76
2021/08/12 07:44:21;;;;;;;6.35;4.45;;;21.50;99.90;;;;;;1997376;72;21494;-76
2021/08/12 07:46:47;;;;;;;6.70;4.40;;;22.10;99.90;;;;;;1997436;72;21084;-76
2021/08/12 07:49:13;;;;;;;6.35;4.25;;;22.90;99.90;;;;;;1997416;72;21034;-75
2021/08/12 07:51:40;;;;;;;7.40;4.17;;;22.90;99.90;;;;;;1997428;72;21033;-76
2021/08/12 07:54:06;;;;;;;12.15;3.85;;;23.30;99.90;;;;;;1997396;72;21049;-75
2021/08/12 07:56:32;;;;;;;5.00;4.15;;;23.20;99.90;;;;;;1997499;72;21096;-76
2021/08/12 07:58:58;;;;;;;6.08;3.60;;;23.40;99.90;;;;;;1997558;72;21111;-76
2021/08/12 08:01:24;;;;;;;5.72;3.27;;;24.20;99.90;;;;;;1997592;72;21042;-76
2021/08/12 08:03:50;;;;;;;13.13;3.80;;;24.30;99.90;;;;;;1997246;72;21038;-77
2021/08/12 08:06:16;;;;;;;10.50;3.75;;;24.30;99.90;;;;;;1997361;72;21014;-77
2021/08/12 08:08:42;;;;;;;4.90;3.50;;;24.00;99.90;;;;;;1997403;72;21103;-77
2021/08/12 08:11:09;;;;;;;5.70;3.87;;;24.20;99.90;;;;;;1997444;72;21053;-77
2021/08/12 08:13:35;;;;;;;6.40;3.90;;;24.60;99.90;;;;;;1998457;72;21536;-77
2021/08/12 08:16:01;;;;;;;5.95;3.45;;;24.50;99.90;;;;;;2001411;71;20989;-77
2021/08/12 08:18:27;;;;;;;6.97;4.08;;;24.40;99.90;;;;;;2000141;71;21041;-77
2021/08/12 08:20:53;;;;;;;10.63;3.80;;;24.60;99.90;;;;;;1997475;72;21034;-77
2021/08/12 08:23:19;;;;;;;8.98;3.47;;;24.50;99.90;;;;;;1997501;72;21103;-77
2021/08/12 08:25:45;;;;;;;8.63;3.15;;;24.90;99.90;;;;;;1997474;72;21038;-78
2021/08/12 08:28:12;;;;;;;4.92;3.40;;;25.20;99.90;;;;;;1997488;72;21038;-78
2021/08/12 08:30:38;;;;;;;8.65;3.52;;;24.80;99.90;;;;;;1997504;72;21080;-78
2021/08/12 08:33:04;;;;;;;4.30;3.42;;;25.10;99.90;;;;;;1997441;72;21095;-75
2021/08/12 08:35:30;;;;;;;6.40;3.37;;;25.80;99.90;;;;;;1997527;72;21099;-77
2021/08/12 08:37:56;;;;;;;6.00;3.60;;;25.40;99.90;;;;;;1997476;72;21042;-78
2021/08/12 08:40:22;;;;;;;8.88;3.35;;;25.50;99.90;;;;;;1997591;72;21110;-77
2021/08/12 08:42:48;;;;;;;8.33;3.55;;;25.80;99.90;;;;;;1997359;72;21038;-77
2021/08/12 08:45:15;;;;;;;5.70;3.40;;;25.70;99.90;;;;;;1997437;72;21041;-77
2021/08/12 08:47:41;;;;;;;9.40;3.80;;;26.20;99.90;;;;;;1997384;72;21045;-77
2021/08/12 08:50:07;;;;;;;6.97;3.70;;;26.10;99.90;;;;;;1997518;72;21057;-77
2021/08/12 08:52:33;;;;;;;4.22;3.40;;;26.30;99.90;;;;;;1997319;72;21037;-77
2021/08/12 08:55:00;;;;;;;9.38;3.58;;;26.50;99.90;;;;;;1997444;72;21110;-78
2021/08/12 08:57:26;;;;;;;9.18;4.80;;;26.70;99.90;;;;;;1997218;72;21092;-78
2021/08/12 08:59:52;;;;;;;8.60;4.35;;;26.90;99.90;;;;;;1997416;72;21014;-77
2021/08/12 09:02:18;;;;;;;4.70;3.50;;;26.80;99.90;;;;;;1997253;72;21076;-78
2021/08/12 09:04:44;;;;;;;8.80;3.52;;;27.20;99.90;;;;;;1997412;72;21111;-77
2021/08/12 09:07:10;;;;;;;6.70;3.40;;;26.80;99.90;;;;;;1997547;72;21033;-78
2021/08/12 09:09:36;;;;;;;3.45;3.05;;;26.80;99.90;;;;;;1997565;72;21030;-73
2021/08/12 09:12:02;;;;;;;7.25;3.95;;;27.00;99.90;;;;;;1997345;72;21185;-75
2021/08/12 09:14:29;;;;;;;8.55;3.65;;;26.70;99.90;;;;;;1997364;72;21111;-74
2021/08/12 09:16:55;;;;;;;4.58;3.60;;;27.20;99.90;;;;;;1997379;72;21107;-73
2021/08/12 09:19:22;;;;;;;6.90;3.33;;;27.30;99.90;;;;;;1997471;72;21434;-73
2021/08/12 09:21:48;;;;;;;13.78;3.95;;;26.80;99.90;;;;;;1997456;72;21061;-74
2021/08/12 09:24:14;;;;;;;8.38;3.58;;;27.20;99.90;;;;;;1997607;72;21037;-74
2021/08/12 09:26:43;;;;;;;5.65;3.35;;;27.30;99.90;;;;;;1995715;72;21049;-74
2021/08/12 09:29:09;;;;;;;6.62;3.00;;;27.60;99.90;;;;;;1998364;72;21033;-75
2021/08/12 09:31:35;;;;;;;9.23;2.95;;;27.80;99.90;;;;;;1997250;72;21114;-75
2021/08/12 09:34:02;;;;;;;8.85;2.83;;;28.50;99.90;;;;;;1996904;72;21030;-75
2021/08/12 09:36:28;;;;;;;6.55;3.27;;;27.90;99.90;;;;;;1993837;72;21073;-74
2021/08/12 09:38:54;;;;;;;6.12;3.45;;;28.20;99.90;;;;;;1993224;71;21046;-75
2021/08/12 09:41:20;;;;;;;9.13;3.22;;;28.40;99.90;;;;;;1997495;72;21034;-74
2021/08/12 09:43:46;;;;;;;3.70;2.87;;;28.70;99.90;;;;;;1994472;72;21111;-74
2021/08/12 09:46:12;;;;;;;6.33;2.98;;;29.10;99.90;;;;;;1995903;72;21018;-74
2021/08/12 09:48:38;;;;;;;4.35;3.00;;;29.60;99.90;;;;;;1997519;72;21045;-74
2021/08/12 09:51:09;;;;;;;10.75;3.20;;;29.30;99.90;;;;;;1997503;72;21037;-74
2021/08/12 09:53:32;;;;;;;4.72;3.00;;;29.40;99.90;;;;;;1995392;72;21033;-74
2021/08/12 09:55:58;;;;;;;5.78;3.22;;;29.80;99.90;;;;;;1997307;72;21037;-75
2021/08/12 09:58:25;;;;;;;6.10;3.08;;;29.70;99.90;;;;;;1997498;72;21039;-75
2021/08/12 10:00:51;;;;;;;6.78;2.98;;;29.10;99.90;;;;;;1997284;72;21034;-74
2021/08/12 10:03:18;;;;;;;3.67;2.87;;;29.40;99.90;;;;;;1997439;72;21574;-74
2021/08/12 10:05:45;;;;;;;3.25;2.87;;;29.30;99.90;;;;;;1997256;72;21038;-75
2021/08/12 10:08:11;;;;;;;5.87;2.95;;;29.60;99.90;;;;;;1997323;72;21041;-74
2021/08/12 10:10:38;;;;;;;5.75;3.02;;;29.80;99.90;;;;;;1997360;72;21038;-75
2021/08/12 10:13:04;;;;;;;6.85;2.83;;;30.10;99.90;;;;;;1997427;72;21053;-75
2021/08/12 10:15:31;;;;;;;6.87;3.10;;;29.70;99.90;;;;;;1997461;72;21033;-74
2021/08/12 10:17:57;;;;;;;3.33;2.58;;;29.80;99.90;;;;;;1997546;72;21042;-75
2021/08/12 10:20:23;;;;;;;7.28;2.90;;;30.10;99.90;;;;;;1997614;72;21037;-75
2021/08/12 10:22:49;;;;;;;3.95;2.33;;;30.50;99.90;;;;;;1997491;72;21119;-74
2021/08/12 10:25:15;;;;;;;5.47;2.47;;;30.30;99.90;;;;;;1997468;72;21030;-75
2021/08/12 10:27:41;;;;;;;3.58;3.02;;;30.20;99.90;;;;;;1997305;72;21555;-75
2021/08/12 10:30:08;;;;;;;10.43;3.42;;;29.80;99.90;;;;;;1997281;72;21090;-74
2021/08/12 10:32:34;;;;;;;6.00;3.37;;;29.10;99.90;;;;;;1997366;72;21010;-75
2021/08/12 10:35:00;;;;;;;5.00;2.65;;;29.60;99.90;;;;;;1997242;72;21037;-75
2021/08/12 10:37:26;;;;;;;11.78;2.70;;;30.60;99.90;;;;;;1997424;72;21111;-75
2021/08/12 10:39:52;;;;;;;2.83;2.50;;;31.00;99.90;;;;;;1997198;72;21132;-75
2021/08/12 10:42:18;;;;;;;3.60;2.65;;;31.00;99.90;;;;;;1997526;72;21085;-76
2021/08/12 10:44:44;;;;;;;5.10;2.90;;;30.80;99.90;;;;;;1997277;72;21018;-74
2021/08/12 10:47:10;;;;;;;4.35;2.87;;;30.30;99.90;;;;;;1997476;72;21118;-74
2021/08/12 10:49:37;;;;;;;13.40;2.75;;;30.40;99.90;;;;;;1997588;72;21045;-74
2021/08/12 10:52:03;;;;;;;3.45;2.92;;;31.00;99.90;;;;;;1997563;72;21046;-75
2021/08/12 10:54:29;;;;;;;5.50;2.90;;;30.90;99.90;;;;;;1997506;72;21017;-74
2021/08/12 10:56:55;;;;;;;6.17;2.80;;;30.70;99.90;;;;;;1997596;72;21119;-75
2021/08/12 10:59:21;;;;;;;6.87;3.02;;;30.50;99.90;;;;;;1997400;72;21429;-74
2021/08/12 11:01:47;;;;;;;2.77;2.35;;;31.50;99.90;;;;;;1997338;72;21450;-75
2021/08/12 11:04:13;;;;;;;4.80;2.83;;;31.30;99.90;;;;;;1997358;72;21433;-74
2021/08/12 11:06:40;;;;;;;6.78;2.70;;;31.10;99.90;;;;;;1997398;72;21115;-75
2021/08/12 11:09:08;;;;;;;4.55;3.08;;;31.20;99.90;;;;;;1997635;72;21042;-76
2021/08/12 11:11:34;;;;;;;3.67;3.05;;;31.20;99.90;;;;;;1997270;72;21507;-75
2021/08/12 11:14:00;;;;;;;7.15;2.90;;;30.70;99.90;;;;;;1997371;72;21427;-75
2021/08/12 11:16:26;;;;;;;4.25;2.95;;;30.80;99.90;;;;;;1997302;72;21465;-75
2021/08/12 11:18:52;;;;;;;6.53;3.22;;;30.60;99.90;;;;;;1997393;72;21461;-75
2021/08/12 11:21:18;;;;;;;6.40;3.00;;;29.90;99.90;;;;;;1997452;72;21088;-75
2021/08/12 11:23:44;;;;;;;5.15;3.17;;;29.40;99.90;;;;;;1997555;72;21018;-75
2021/08/12 11:26:10;;;;;;;5.10;3.12;;;29.40;99.90;;;;;;1997529;72;21038;-75
2021/08/12 11:28:37;;;;;;;4.53;3.15;;;30.10;99.90;;;;;;1997520;72;21115;-76
2021/08/12 11:31:03;;;;;;;4.05;3.12;;;30.60;99.90;;;;;;1997509;72;21102;-74
2021/08/12 11:33:29;;;;;;;10.60;3.62;;;31.20;99.90;;;;;;1997518;72;21139;-85
2021/08/12 11:35:55;;;;;;;7.20;3.52;;;31.00;99.90;;;;;;1997498;72;21511;-75
2021/08/12 11:38:21;;;;;;;4.10;3.58;;;30.40;99.90;;;;;;1997429;72;21457;-75
2021/08/12 11:40:47;;;;;;;8.90;3.72;;;30.90;99.90;;;;;;1997411;72;21453;-74
2021/08/12 11:43:13;;;;;;;8.38;3.45;;;30.80;99.90;;;;;;1997439;72;21505;-75
2021/08/12 11:45:40;;;;;;;4.58;3.30;;;31.10;99.90;;;;;;1997430;72;21511;-74
2021/08/12 11:48:07;;;;;;;7.08;3.60;;;31.70;99.90;;;;;;1997421;72;21107;-74
2021/08/12 11:50:33;;;;;;;10.08;3.00;;;31.30;99.90;;;;;;1997534;72;21037;-74
2021/08/12 11:53:00;;;;;;;5.85;3.10;;;31.60;99.90;;;;;;1997550;72;21081;-75
2021/08/12 11:55:26;;;;;;;6.75;5.58;;;32.00;99.90;;;;;;1997314;72;21038;-74
2021/08/12 11:57:52;;;;;;;7.75;3.92;;;31.30;99.90;;;;;;1997398;72;21037;-74
2021/08/12 12:00:18;;;;;;;7.70;3.65;;;31.70;99.90;;;;;;1997290;72;21142;-74
2021/08/12 12:02:44;;;;;;;4.30;3.12;;;32.80;99.90;;;;;;1997656;72;21042;-74
2021/08/12 12:05:11;;;;;;;5.55;3.83;;;33.40;99.90;;;;;;1997610;72;21111;-74
2021/08/12 12:07:37;;;;;;;7.33;3.40;;;33.70;99.90;;;;;;1997483;72;21119;-74
2021/08/12 12:10:03;;;;;;;6.45;3.35;;;34.30;99.90;;;;;;1997480;72;21103;-74
2021/08/12 12:12:29;;;;;;;13.08;4.15;;;34.00;99.90;;;;;;1997595;72;21080;-74
2021/08/12 12:14:55;;;;;;;6.55;3.42;;;32.90;99.90;;;;;;1997497;72;21034;-74
2021/08/12 12:17:22;;;;;;;5.90;3.37;;;32.50;99.90;;;;;;1994958;72;21111;-74
2021/08/12 12:19:48;;;;;;;3.20;2.90;;;33.00;99.90;;;;;;1993659;72;21029;-76
2021/08/12 12:22:15;;;;;;;6.35;3.20;;;33.30;99.90;;;;;;1993536;72;21034;-75
2021/08/12 12:24:41;;;;;;;11.43;4.20;;;32.50;99.90;;;;;;1992767;72;21049;-75
2021/08/12 12:27:07;;;;;;;6.03;3.72;;;32.00;99.90;;;;;;1993848;72;21115;-75
2021/08/12 12:29:33;;;;;;;9.48;3.50;;;32.10;99.90;;;;;;1993365;72;21119;-75
2021/08/12 12:31:59;;;;;;;8.95;2.92;;;32.90;99.90;;;;;;1993403;72;21073;-74
2021/08/12 12:34:25;;;;;;;4.65;3.08;;;32.80;99.90;;;;;;1996120;72;21112;-75
2021/08/12 12:36:51;;;;;;;6.15;3.37;;;33.00;99.90;;;;;;1997371;72;21514;-74
2021/08/12 12:39:17;;;;;;;5.22;3.42;;;33.30;99.90;;;;;;1997470;72;21102;-74